Terminal Aerodrome Forecast
Issued by NWS Albany, NY

Home | Current Version | Previous Version | Text Only | Print | Product List | Glossary On
Versions: 1 2 3 4 5 6 7 8 9 10 11 12
882
FTUS41 KALY 251139
TAFGFL
TAF
KGFL 251139Z 2512/2612 36003KT P6SM VCSH BKN100 OVC200
      WS020/13030KT
      TEMPO 2514/2516 6SM -RA BR BKN050
     FM251600 05012G20KT 5SM -RA BR SCT020 OVC050 WS020/14035KT
     FM252300 06014G26KT P6SM VCSH OVC020
     FM260200 05007KT P6SM OVC020 PROB30 2602/2604 3SM -RA BR OVC007
     FM260400 04005KT 4SM -RA BR BKN008 OVC015
      AMD NOT SKED=

USA.gov is the U.S. government's official web portal to all federal, state and local government web resources and services.